D/T METAR WX W/DIR W/SPE G/SPE TEMP DEWP
18/02/19 08:50 EGYH 180850Z 21014KT CAVOK 07/07 Q1013 BLU SSW (210°) 16.1mph 7°C 7°C
15/02/19 10:50 EGYH 151050Z 21009KT 6000 HZ NSC 05/04 Q1027 WHT HZ SSW (210°) 10.4mph 5°C 4°C
15/02/19 09:50 EGYH 150950Z 20008KT 4000 HZ NSC 05/04 Q1027 GRN HZ SSW (200°) 9.2mph 5°C 4°C
15/02/19 08:50 EGYH 150850Z 19008KT 2500 BR NSC 03/02 Q1027 YLO1 BR S (190°) 9.2mph 3°C 2°C
14/02/19 15:50 EGYH 141550Z 20007KT CAVOK 11/04 Q1030 BLU SSW (200°) 8.1mph 11°C 4°C
14/02/19 14:50 EGYH 141450Z 20010KT CAVOK 12/06 Q1031 BLU SSW (200°) 11.5mph 12°C 6°C
14/02/19 13:50 EGYH 141350Z 20011KT CAVOK 12/06 Q1031 BLU SSW (200°) 12.7mph 12°C 6°C
14/02/19 12:50 EGYH 141250Z 21010KT CAVOK 10/06 Q1032 BLU SSW (210°) 11.5mph 10°C 6°C
14/02/19 11:50 EGYH 141150Z 21008KT 5000 HZ FEW150 09/06 Q1032 WHT HZ SSW (210°) 9.2mph 9°C 6°C
14/02/19 09:50 EGYH 140950Z 20007KT 4000 BR FEW150 06/04 Q1032 GRN BR SSW (200°) 8.1mph 6°C 4°C
14/02/19 08:50 EGYH 140850Z 18007KT 4000 BR FEW150 04/04 Q1032 GRN BR S (180°) 8.1mph 4°C 4°C
13/02/19 15:50 EGYH 131550Z 23018KT CAVOK 11/07 Q1030 BLU SW (230°) 20.7mph 11°C 7°C
13/02/19 14:50 EGYH 131450Z 23019KT CAVOK 12/06 Q1030 BLU SW (230°) 21.9mph 12°C 6°C
13/02/19 13:50 EGYH 131350Z 23019KT CAVOK 12/07 Q1030 BLU SW (230°) 21.9mph 12°C 7°C
13/02/19 12:50 EGYH 131250Z 24020KT CAVOK 12/08 Q1031 BLU WSW (240°) 23.0mph 12°C 8°C
13/02/19 11:50 EGYH 131150Z 23019KT 9999 FEW025 SCT200 12/07 Q1031 BLU SW (230°) 21.9mph 12°C 7°C
13/02/19 10:50 EGYH 131050Z 23018KT 9999 FEW030 SCT160 11/07 Q1031 BLU SW (230°) 20.7mph 11°C 7°C
13/02/19 09:50 EGYH 130950Z 21012KT 8000 HZ BKN025 09/07 Q1031 BLU HZ SSW (210°) 13.8mph 9°C 7°C
13/02/19 08:50 EGYH 130850Z 23013KT 8000 BR OVC030 07/07 Q1032 BLU BR SW (230°) 15.0mph 7°C 7°C
12/02/19 15:50 EGYH 121550Z 23010KT CAVOK 10/07 Q1030 BLU SW (230°) 11.5mph 10°C 7°C
12/02/19 14:50 EGYH 121450Z 23015KT CAVOK 09/06 Q1030 BLU SW (230°) 17.3mph 9°C 6°C
12/02/19 13:50 EGYH 121350Z 24015KT 9999 FEW045 BKN080 09/06 Q1030 BLU WSW (240°) 17.3mph 9°C 6°C
12/02/19 12:50 EGYH 121250Z 24013KT CAVOK 08/06 Q1030 BLU WSW (240°) 15.0mph 8°C 6°C
12/02/19 11:50 EGYH 121150Z 23013KT CAVOK 07/05 Q1031 BLU SW (230°) 15.0mph 7°C 5°C
12/02/19 10:50 EGYH 121050Z 23014KT CAVOK 06/04 Q1031 BLU SW (230°) 16.1mph 6°C 4°C
12/02/19 09:50 EGYH 120950Z 24012KT CAVOK 04/03 Q1031 BLU WSW (240°) 13.8mph 4°C 3°C
12/02/19 08:50 EGYH 120850Z 23011KT 8000 BR FEW110 SCT220 03/02 Q1031 BLU BR SW (230°) 12.7mph 3°C 2°C
11/02/19 15:50 EGYH 111550Z 31001KT 9999 FEW025 08/03 Q1028 BLU NW (310°) 1.2mph 8°C 3°C
11/02/19 14:50 EGYH 111450Z 03005KT 9999 FEW025 09/04 Q1027 BLU NNE (30°) 5.8mph 9°C 4°C
11/02/19 13:50 EGYH 111350Z 34007KT 9999 FEW030 09/04 Q1026 BLU NNW (340°) 8.1mph 9°C 4°C
11/02/19 12:50 EGYH 111250Z 35010KT 9999 FEW030 08/05 Q1026 BLU N (350°) 11.5mph 8°C 5°C
11/02/19 11:50 EGYH 111150Z 33011KT 9999 FEW030 07/05 Q1025 BLU NNW (330°) 12.7mph 7°C 5°C
11/02/19 10:50 EGYH 111050Z 34011KT 9999 BKN035 06/04 Q1023 BLU NNW (340°) 12.7mph 6°C 4°C
11/02/19 09:50 EGYH 110950Z 32012KT 9999 SCT035 05/03 Q1022 BLU NW (320°) 13.8mph 5°C 3°C
11/02/19 08:50 EGYH 110850Z 33011KT 9999 BKN035 03/02 Q1020 BLU NNW (330°) 12.7mph 3°C 2°C
8/02/19 09:50 EGYH 080950Z 21026G37KT 9999 -RA BKN015 Q0995 WHT -RA SSW (210°) 29.9mph 42.6mph 0°C 0°C
8/02/19 08:50 EGYH 080850Z 21027KT 9999 -RA BKN015 09/08 Q0996 WHT -RA SSW (210°) 31.1mph 9°C 8°C
7/02/19 19:50 EGYH 071950Z 23013KT CAVOK 05/02 Q1006 BLU SW (230°) 15.0mph 5°C 2°C
7/02/19 18:50 EGYH 071850Z 24013KT CAVOK 05/03 Q1005 BLU WSW (240°) 15.0mph 5°C 3°C
7/02/19 17:50 EGYH 071750Z 26012KT CAVOK 06/02 Q1005 BLU W (260°) 13.8mph 6°C 2°C
7/02/19 16:50 EGYH 071650Z 26014KT 9999 FEW045 07/03 Q1004 BLU W (260°) 16.1mph 7°C 3°C
7/02/19 14:50 EGYH 071450Z 27020KT 9999 SCT020 BKN045 08/04 Q1003 WHT W (270°) 23.0mph 8°C 4°C
7/02/19 13:50 EGYH 071350Z 27022KT 9999 SCT020 BKN045 07/05 Q1002 WHT W (270°) 25.3mph 7°C 5°C
7/02/19 12:50 EGYH 071250Z 27023KT 9999 -RA BKN020 06/04 Q1001 WHT -RA W (270°) 26.5mph 6°C 4°C
7/02/19 10:50 EGYH 071050Z 27033G45KT 9999 BKN015 06/03 Q0998 WHT W (270°) 38.0mph 51.8mph 6°C 3°C
7/02/19 09:50 EGYH 070950Z 26030G40KT 6000 RA FEW008 BKN012 05/04 Q0998 GRN RA W (260°) 34.5mph 46.0mph 5°C 4°C
7/02/19 08:50 EGYH 070850Z 25025G44KT 9999 SHRA SCT012 BKN025 06/03 Q0997 GRN SHRA WSW (250°) 28.8mph 50.6mph 6°C 3°C
6/02/19 15:50 EGYH 061550Z 21008KT CAVOK 08/06 Q1014 BLU SSW (210°) 9.2mph 8°C 6°C
6/02/19 14:50 EGYH 061450Z 24010KT CAVOK 09/05 Q1015 BLU WSW (240°) 11.5mph 9°C 5°C
6/02/19 13:50 EGYH 061350Z 23012KT 9999 FEW020 BKN250 10/06 Q1016 BLU SW (230°) 13.8mph 10°C 6°C
6/02/19 12:50 EGYH 061250Z 24010KT 9999 FEW020 BKN250 10/07 Q1016 BLU WSW (240°) 11.5mph 10°C 7°C
6/02/19 11:50 EGYH 061150Z 25013KT CAVOK 10/07 Q1017 BLU WSW (250°) 15.0mph 10°C 7°C
6/02/19 10:50 EGYH 061050Z 26009KT CAVOK 08/06 Q1018 BLU W (260°) 10.4mph 8°C 6°C
6/02/19 09:50 EGYH 060950Z 24009KT CAVOK 07/06 Q1018 BLU WSW (240°) 10.4mph 7°C 6°C
6/02/19 08:50 EGYH 060850Z 24009KT CAVOK 05/05 Q1018 BLU WSW (240°) 10.4mph 5°C 5°C
5/02/19 17:50 EGYH 051750Z 21015KT 9999 BKN012 07/06 Q1019 GRN SSW (210°) 17.3mph 7°C 6°C
5/02/19 16:50 EGYH 051650Z 20014KT 9999 -RA BKN015 08/07 Q1020 WHT -RA SSW (200°) 16.1mph 8°C 7°C
5/02/19 15:50 EGYH 051550Z 19013KT 9999 BKN015 08/07 Q1020 WHT S (190°) 15.0mph 8°C 7°C
5/02/19 14:50 EGYH 051450Z 19012KT 9999 BKN015 08/07 Q1021 WHT S (190°) 13.8mph 8°C 7°C
5/02/19 13:50 EGYH 051350Z 19013KT 9999 BKN025 07/07 Q1021 BLU S (190°) 15.0mph 7°C 7°C
5/02/19 12:50 EGYH 051250Z 17011KT 6000 HZ BKN015 06/06 Q1022 WHT HZ S (170°) 12.7mph 6°C 6°C
5/02/19 12:21 EGYH 051221Z 19007KT 4500 BR BKN007 04/04 Q1023 GRN BR S (190°) 8.1mph 4°C 4°C
5/02/19 10:50 EGYH 051050Z 20007KT 0100 FG VV/// 03/03 Q1024 RED FG SSW (200°) 8.1mph 3°C 3°C
5/02/19 09:50 EGYH 050950Z 19006KT 0100 FG VV/// 03/03 Q1024 RED FG S (190°) 6.9mph 3°C 3°C
5/02/19 08:50 EGYH 050850Z 19008KT 0200 FG VV/// 01/01 Q1024 RED FG S (190°) 9.2mph 1°C 1°C
4/02/19 15:50 EGYH 041550Z 28009KT 9999 FEW025 08/05 Q1016 BLU W (280°) 10.4mph 8°C 5°C
4/02/19 14:50 EGYH 041450Z 27012KT 9999 FEW025 10/06 Q1015 BLU W (270°) 13.8mph 10°C 6°C
4/02/19 13:50 EGYH 041350Z 25005KT 9999 BKN015 09/07 Q1014 WHT WSW (250°) 5.8mph 9°C 7°C
4/02/19 12:50 EGYH 041250Z 24013KT 9999 SCT010 BKN030 08/07 Q1014 GRN WSW (240°) 15.0mph 8°C 7°C
4/02/19 11:50 EGYH 041150Z 23010KT 9999 BKN010 07/07 Q1014 GRN SW (230°) 11.5mph 7°C 7°C
4/02/19 10:50 EGYH 041050Z 23016KT 5000 BR SCT012 OVC030 06/06 Q1013 GRN BR SW (230°) 18.4mph 6°C 6°C
4/02/19 10:05 EGYH 041005Z 23021KT 3500 RA BKN015 OVC030 06/05 Q1013 YLO1 RA SW (230°) 24.2mph 6°C 5°C
4/02/19 09:50 EGYH 040950Z 23021KT 9999 -RA BKN015 OVC030 06/05 Q1013 WHT -RA SW (230°) 24.2mph 6°C 5°C
4/02/19 08:50 EGYH 040850Z 22021G33KT 9999 RA BKN015 OVC030 06/05 Q1013 WHT RA SW (220°) 24.2mph 38.0mph 6°C 5°C
1/02/19 10:50 EGYH 011050Z 07014KT CAVOK 03/00 Q0990 BLU ENE (70°) 16.1mph 3°C 0°C
1/02/19 08:50 EGYH 010850Z 07018KT 9999 FEW025 SCT050 03/M01 Q0989 BLU ENE (70°) 20.7mph 3°C -1°C
31/01/19 16:50 EGYH 311650Z 11012KT 4500 BR SCT250 M01/M01 Q0990 GRN BR ESE (110°) 13.8mph -1°C -1°C
31/01/19 14:50 EGYH 311450Z 11010KT 8000 BR FEW004 SCT250 M00/M00 Q0991 BLU BR ESE (110°) 11.5mph 0°C 0°C
31/01/19 14:35 EGYH 311435Z 11008KT 4000 BR FEW004 SCT250 M01/M01 Q0991 GRN BR ESE (110°) 9.2mph -1°C -1°C
31/01/19 13:50 EGYH 311350Z 10005KT 0100 FZFG VV/// M01/M01 Q0992 RED FZFG E (100°) 5.8mph -1°C -1°C
31/01/19 12:50 EGYH 311250Z 16004KT 0100 FZFG VV/// M01/M01 Q0993 RED FZFG SSE (160°) 4.6mph -1°C -1°C
31/01/19 10:50 EGYH 311050Z 17005KT 0100 FZFG VV/// M03/M03 Q0994 RED FZFG S (170°) 5.8mph -3°C -3°C
31/01/19 09:50 EGYH 310950Z 18005KT 0100 FZFG VV/// M03/M03 Q0994 RED FZFG S (180°) 5.8mph -3°C -3°C
31/01/19 08:50 EGYH 310850Z 17004KT 2500 BR M04/M04 Q0994 YLO2 BR S (170°) 4.6mph -4°C -4°C
30/01/19 15:50 EGYH 301550Z 36004KT 9999 SCT030 BKN040 02/M00 Q0995 BLU N (360°) 4.6mph 2°C 0°C
30/01/19 14:50 EGYH 301450Z 33005KT 9999 BKN035 03/00 Q0994 BLU NNW (330°) 5.8mph 3°C 0°C
30/01/19 11:50 EGYH 301150Z 29009KT 9999 FEW035 03/00 Q0994 BLU WNW (290°) 10.4mph 3°C 0°C
30/01/19 10:50 EGYH 301050Z 28008KT CAVOK 02/M00 Q0994 BLU W (280°) 9.2mph 2°C 0°C
30/01/19 08:50 EGYH 300850Z 28008KT CAVOK M01/M01 Q0994 BLU W (280°) 9.2mph -1°C -1°C
29/01/19 18:50 EGYH 291850Z 21014KT 9999 -RA BKN015 03/02 Q0992 WHT -RA SSW (210°) 16.1mph 3°C 2°C
29/01/19 17:50 EGYH 291750Z 19009KT 9999 -RA SCT015 BKN030 03/00 Q0992 WHT -RA S (190°) 10.4mph 3°C 0°C
29/01/19 16:50 EGYH 291650Z 17011KT CAVOK 03/00 Q0993 BLU S (170°) 12.7mph 3°C 0°C
29/01/19 15:50 EGYH 291550Z 18010KT CAVOK 04/00 Q0993 BLU S (180°) 11.5mph 4°C 0°C
29/01/19 14:50 EGYH 291450Z 19013KT 9999 FEW040 SCT090 BKN150 04/01 Q0994 BLU S (190°) 15.0mph 4°C 1°C
29/01/19 13:50 EGYH 291350Z 20011KT 9999 SCT040 BKN150 04/01 Q0995 BLU SSW (200°) 12.7mph 4°C 1°C
29/01/19 12:50 EGYH 291250Z 20012KT 9999 FEW040 BKN150 02/00 Q0996 BLU SSW (200°) 13.8mph 2°C 0°C
29/01/19 11:50 EGYH 291150Z 21013KT 9999 FEW040 BKN150 02/00 Q0997 BLU SSW (210°) 15.0mph 2°C 0°C
29/01/19 10:50 EGYH 291050Z 21012KT CAVOK 02/M00 Q0999 BLU SSW (210°) 13.8mph 2°C 0°C
29/01/19 09:50 EGYH 290950Z 22012KT CAVOK 01/M00 Q0999 BLU SW (220°) 13.8mph 1°C 0°C
28/01/19 15:50 EGYH 281550Z 32012KT 9999 FEW035 04/M02 Q1007 BLU NW (320°) 13.8mph 4°C -2°C
28/01/19 13:50 EGYH 281350Z 33016KT 9999 FEW020 05/M02 Q1006 BLU NNW (330°) 18.4mph 5°C -2°C
28/01/19 12:50 EGYH 281250Z 33020KT 9999 FEW020 04/M02 Q1006 BLU NNW (330°) 23.0mph 4°C -2°C
28/01/19 11:50 EGYH 281150Z 32017KT 9999 FEW020 04/M02 Q1005 BLU NW (320°) 19.6mph 4°C -2°C
28/01/19 10:50 EGYH 281050Z 33019KT 9999 FEW020 03/M02 Q1005 BLU NNW (330°) 21.9mph 3°C -2°C
28/01/19 09:50 EGYH 280950Z 32016KT 9999 FEW020 02/M02 Q1003 BLU NW (320°) 18.4mph 2°C -2°C
25/01/19 10:50 EGYH 251050Z 8000 HZ BKN035 08/08 Q1010 BLU HZ N (0°) 8°C 8°C
25/01/19 09:50 EGYH 250950Z 27012KT 4000 BR BKN030 04/04 Q1011 GRN BR W (270°) 13.8mph 4°C 4°C
25/01/19 08:50 EGYH 250850Z 25010KT 3000 BR -RA BKN040 04/04 Q1010 YLO1 BR -RA WSW (250°) 11.5mph 4°C 4°C
24/01/19 17:50 EGYH 241750Z 30002KT 3500 BR FEW060 M01/M02 Q1012 YLO1 BR WNW (300°) 2.3mph -1°C -2°C
24/01/19 16:50 EGYH 241650Z 31005KT 4000 BR FEW060 01/M00 Q1012 GRN BR NW (310°) 5.8mph 1°C 0°C
24/01/19 15:50 EGYH 241550Z 30003KT 6000 HZ FEW060 03/02 Q1010 WHT HZ WNW (300°) 3.5mph 3°C 2°C
24/01/19 14:50 EGYH 241450Z 29005KT 7000 HZ FEW060 04/02 Q1010 WHT HZ WNW (290°) 5.8mph 4°C 2°C
24/01/19 13:50 EGYH 241350Z 30005KT 7000 HZ FEW160 SCT250 03/02 Q1010 WHT HZ WNW (300°) 5.8mph 3°C 2°C
24/01/19 12:50 EGYH 241250Z 29007KT 7000 BR SCT070 03/02 Q1010 WHT BR WNW (290°) 8.1mph 3°C 2°C
24/01/19 11:50 EGYH 241150Z 26005KT 4000 BR SCT250 02/02 Q1010 GRN BR W (260°) 5.8mph 2°C 2°C
24/01/19 10:50 EGYH 241050Z 24005KT 3500 BR BKN060 01/01 Q1010 YLO1 BR WSW (240°) 5.8mph 1°C 1°C
24/01/19 09:50 EGYH 240950Z 2406KT 4000 BR BKN025 00/00 Q1010 GRN BR N (0°) 0°C 0°C
24/01/19 08:50 EGYH 240850Z 23007KT 6000 BR FEW015 BKN030 00/M00 Q1010 WHT BR SW (230°) 8.1mph 0°C 0°C
23/01/19 15:50 EGYH 231550Z 33008KT CAVOK 01/M00 Q1005 BLU NNW (330°) 9.2mph 1°C 0°C
23/01/19 14:50 EGYH 231450Z 34010KT CAVOK 03/00 Q1004 BLU NNW (340°) 11.5mph 3°C 0°C
23/01/19 13:50 EGYH 231350Z 34012KT CAVOK 03/01 Q1003 BLU NNW (340°) 13.8mph 3°C 1°C
23/01/19 12:50 EGYH 231250Z 33012KT 9999 FEW025 03/01 Q1003 BLU NNW (330°) 13.8mph 3°C 1°C
23/01/19 11:50 EGYH 231150Z 33011KT 9999 FEW030 02/01 Q1002 BLU NNW (330°) 12.7mph 2°C 1°C
23/01/19 10:50 EGYH 231050Z 34010KT 9999 FEW045 01/01 Q1002 BLU NNW (340°) 11.5mph 1°C 1°C
23/01/19 09:50 EGYH 230950Z 33010KT 6000 BR BKN010 00/M00 Q1001 GRN BR NNW (330°) 11.5mph 0°C 0°C
23/01/19 08:50 EGYH 230850Z 33009KT 6000 BR BKN010 00/00 Q1001 GRN BR NNW (330°) 10.4mph 0°C 0°C
22/01/19 19:50 EGYH 221950Z 20007KT 9999 -SHRASN BKN020 01/00 Q0997 WHT -SHRA -SHSN SSW (200°) 8.1mph 1°C 0°C
22/01/19 18:50 EGYH 221850Z 24009KT 9999 SCT040 01/01 Q0997 BLU WSW (240°) 10.4mph 1°C 1°C
22/01/19 17:50 EGYH 221750Z 25009KT 9999 FEW045 01/01 Q0998 BLU WSW (250°) 10.4mph 1°C 1°C
22/01/19 16:50 EGYH 221650Z 25007KT 9999 FEW045 02/01 Q0998 BLU WSW (250°) 8.1mph 2°C 1°C
22/01/19 15:50 EGYH 221550Z 25007KT CAVOK 03/01 Q0998 BLU WSW (250°) 8.1mph 3°C 1°C
22/01/19 14:50 EGYH 221450Z 27008KT 9999 SCT025 BKN060 05/02 Q0998 BLU W (270°) 9.2mph 5°C 2°C
22/01/19 13:50 EGYH 221350Z 26013KT 9999 BKN025 05/02 Q0999 BLU W (260°) 15.0mph 5°C 2°C
22/01/19 12:50 EGYH 221250Z 27013KT 9999 FEW020 SCT035 05/02 Q0999 BLU W (270°) 15.0mph 5°C 2°C
22/01/19 11:50 EGYH 221150Z 27014KT 9999 FEW025 05/02 Q1000 BLU W (270°) 16.1mph 5°C 2°C
22/01/19 10:50 EGYH 221050Z 27011KT 9999 FEW025 04/02 Q1001 BLU W (270°) 12.7mph 4°C 2°C
22/01/19 09:50 EGYH 220950Z 27011KT CAVOK 02/01 Q1001 BLU W (270°) 12.7mph 2°C 1°C
22/01/19 08:50 EGYH 220850Z 25010KT CAVOK 01/00 Q1001 BLU WSW (250°) 11.5mph 1°C 0°C
21/01/19 15:50 EGYH 211550Z 22009KT 9999 FEW040 SCT180 BKN250 05/02 Q1017 BLU SW (220°) 10.4mph 5°C 2°C
21/01/19 14:50 EGYH 211450Z 22011KT 9999 FEW030 SCT180 BKN250 06/02 Q1018 SW (220°) 12.7mph 6°C 2°C
21/01/19 13:50 EGYH 211350Z 23012KT 9999 FEW030 SCT250 06/02 Q1019 BLU SW (230°) 13.8mph 6°C 2°C
21/01/19 12:50 EGYH 211250Z 25011KT 9000 HZ FEW025 SCT250 07/03 Q1020 BLU HZ WSW (250°) 12.7mph 7°C 3°C
21/01/19 11:50 EGYH 211150Z 23008KT 9000 HZ SCT250 07/04 Q1021 BLU HZ SW (230°) 9.2mph 7°C 4°C
21/01/19 09:50 EGYH 210950Z 26005KT 4000 BR FEW030 SCT250 03/03 Q1023 GRN BR W (260°) 5.8mph 3°C 3°C